Time;durP1;ratioP1;P1;durP2;ratioP2;P2;SDS_P1;SDS_P2;PMS_P1;PMS_P2;Temp;Humidity;BMP_temperature;BMP_pressure;BME280_temperature;BME280_humidity;BME280_pressure;Samples;Min_cycle;Max_cycle;Signal;HPM_P1;HPM_P2
2021/12/17 00:04:38;;;;;;;19.93;3.70;;;;;;;7.90;80.83;102796.91;5054437;28;20281;-71
2021/12/17 00:07:12;;;;;;;20.07;4.07;;;;;;;8.70;78.75;102808.34;5039631;28;20594;-70
2021/12/17 00:09:39;;;;;;;15.80;3.73;;;;;;;8.63;78.83;102806.69;5036737;28;20162;-70
2021/12/17 00:12:09;;;;;;;20.63;3.87;;;;;;;8.36;79.11;102802.59;5019519;28;20302;-70
2021/12/17 00:14:37;;;;;;;21.70;4.07;;;;;;;8.43;78.85;102793.63;5036951;28;20156;-70
2021/12/17 00:17:06;;;;;;;23.57;4.50;;;;;;;8.20;80.06;102817.84;5036805;28;20255;-69
2021/12/17 00:49:05;;;;;;;17.70;3.33;;;;;;;7.61;80.73;102798.06;5038904;28;20170;-72
2021/12/17 00:54:02;;;;;;;26.10;4.00;;;;;;;8.01;80.43;102817.13;5036552;28;20285;-71
2021/12/17 00:56:28;;;;;;;25.13;4.93;;;;;;;8.30;80.34;102848.75;5019386;28;20182;-71
2021/12/17 00:58:53;;;;;;;26.80;4.13;;;;;;;8.40;79.16;102836.25;5037076;28;20189;-71
2021/12/17 01:01:19;;;;;;;21.50;4.20;;;;;;;8.02;79.13;102802.06;5036063;28;20182;-70
2021/12/17 01:03:44;;;;;;;19.33;3.93;;;;;;;8.12;79.52;102820.56;5035592;28;20203;-71
2021/12/17 01:06:10;;;;;;;14.80;3.90;;;;;;;7.61;80.87;102808.69;5019291;28;20178;-71
2021/12/17 01:08:35;;;;;;;26.80;3.87;;;;;;;8.20;79.39;102806.31;5035873;28;20218;-71
2021/12/17 01:11:03;;;;;;;24.97;4.57;;;;;;;8.21;79.42;102818.72;5035477;28;20170;-71
2021/12/17 01:13:29;;;;;;;29.90;4.93;;;;;;;7.93;80.83;102818.13;5018672;28;20204;-71
2021/12/17 01:15:56;;;;;;;27.87;3.93;;;;;;;7.52;81.77;102816.75;5035294;28;20202;-70
2021/12/17 01:18:24;;;;;;;18.63;3.80;;;;;;;7.33;82.07;102823.09;5035662;28;20241;-71
2021/12/17 01:36:54;;;;;;;18.03;3.83;;;;;;;7.61;80.56;102837.03;5038293;28;20166;-72
2021/12/17 01:42:06;;;;;;;22.00;4.13;;;;;;;8.10;78.37;102821.47;5053362;28;20248;-73
2021/12/17 01:44:33;;;;;;;22.27;3.73;;;;;;;8.27;78.59;102830.16;5035645;28;20266;-73
2021/12/17 01:46:59;;;;;;;17.07;3.13;;;;;;;8.66;77.53;102834.13;5053141;28;20170;-71
2021/12/17 01:55:48;;;;;;;17.47;4.00;;;;;;;8.78;78.10;102843.72;5035585;28;20174;-71
2021/12/17 02:00:39;;;;;;;20.50;3.57;;;;;;;8.86;77.05;102833.84;5044238;28;20535;-72
2021/12/17 02:03:06;;;;;;;17.17;3.50;;;;;;;9.12;75.96;102832.59;5041655;28;20203;-71
2021/12/17 02:05:33;;;;;;;18.27;4.30;;;;;;;8.73;77.00;102835.81;5039479;28;20179;-73
2021/12/17 02:07:59;;;;;;;24.77;4.87;;;;;;;8.25;78.62;102845.25;5039684;28;20175;-71
2021/12/17 02:32:30;;;;;;;24.63;5.50;;;;;;;8.99;77.50;102838.13;5037258;28;20231;-71
2021/12/17 02:35:22;;;;;;;26.83;5.53;;;;;;;8.90;77.98;102846.22;5034880;28;20171;-70
2021/12/17 02:37:49;;;;;;;24.60;5.50;;;;;;;8.86;78.59;102868.47;5021877;28;20266;-71
2021/12/17 02:42:30;;;;;;;26.33;6.20;;;;;;;8.51;79.61;102866.25;5038129;28;20175;-72
2021/12/17 02:45:32;;;;;;;18.30;5.63;;;;;;;8.89;79.59;102870.19;5056183;28;20527;-72
2021/12/17 02:48:19;;;;;;;22.30;6.30;;;;;;;9.25;78.15;102856.34;5038075;28;20641;-70
2021/12/17 02:50:47;;;;;;;30.10;5.93;;;;;;;9.08;78.08;102864.63;5038492;28;20190;-72
2021/12/17 02:53:13;;;;;;;25.90;6.37;;;;;;;8.50;80.11;102858.28;5038098;28;20183;-71
2021/12/17 02:55:42;;;;;;;25.83;6.27;;;;;;;9.17;77.81;102846.72;5037894;28;20174;-71
2021/12/17 02:58:08;;;;;;;20.30;6.00;;;;;;;8.62;79.27;102853.72;5037930;28;20167;-71
2021/12/17 03:00:35;;;;;;;21.30;6.33;;;;;;;8.70;79.44;102842.97;5038143;28;20642;-71
2021/12/17 03:03:03;;;;;;;12.60;5.03;;;;;;;8.81;78.83;102835.69;5042479;28;20708;-71
2021/12/17 03:05:29;;;;;;;22.20;6.37;;;;;;;8.54;79.93;102826.28;5038087;28;20306;-72
2021/12/17 03:07:56;;;;;;;20.70;7.00;;;;;;;8.47;80.32;102837.91;5038294;28;20205;-72
2021/12/17 03:10:21;;;;;;;24.60;6.63;;;;;;;8.38;81.30;102851.34;5038306;28;20183;-72
2021/12/17 03:12:50;;;;;;;22.00;6.27;;;;;;;8.20;81.72;102836.47;5038243;28;20513;-72
2021/12/17 03:15:43;;;;;;;25.30;7.00;;;;;;;8.27;82.21;102827.50;5037975;28;20186;-72
2021/12/17 03:26:24;;;;;;;24.63;7.77;;;;;;;8.21;81.85;102830.22;5033869;28;20513;-71
2021/12/17 03:28:52;;;;;;;38.30;8.23;;;;;;;8.09;81.78;102833.88;5037812;28;20169;-72
2021/12/17 03:31:18;;;;;;;29.60;8.07;;;;;;;8.25;82.22;102839.94;5021360;28;20191;-72
2021/12/17 03:33:46;;;;;;;30.33;8.60;;;;;;;8.35;82.18;102838.06;5038298;28;20589;-73
2021/12/17 03:36:14;;;;;;;21.23;7.77;;;;;;;8.60;81.57;102826.25;5021185;28;20292;-73
2021/12/17 03:38:41;;;;;;;33.03;8.30;;;;;;;8.58;81.58;102835.16;5055972;28;20171;-72
2021/12/17 03:41:19;;;;;;;26.50;7.67;;;;;;;8.28;80.50;102807.09;5037666;28;20174;-71
2021/12/17 03:43:47;;;;;;;32.17;7.97;;;;;;;9.05;80.15;102834.47;5026397;28;20257;-71
2021/12/17 03:46:12;;;;;;;31.37;8.93;;;;;;;8.23;80.56;102808.94;5044248;28;20197;-72
2021/12/17 03:48:39;;;;;;;27.67;8.03;;;;;;;8.56;80.64;102810.34;5045857;28;20179;-71
2021/12/17 03:51:10;;;;;;;35.13;8.00;;;;;;;8.39;82.62;102832.69;5021395;28;20174;-72
2021/12/17 03:53:35;;;;;;;26.57;9.10;;;;;;;8.82;80.68;102816.16;5037098;28;20156;-72
2021/12/17 03:56:01;;;;;;;33.50;8.47;;;;;;;8.24;81.65;102805.38;5037611;28;20270;-71
2021/12/17 03:58:26;;;;;;;29.90;8.50;;;;;;;8.56;82.61;102828.97;5037620;28;20184;-71
2021/12/17 04:00:51;;;;;;;29.63;8.27;;;;;;;8.70;81.55;102811.91;5037427;28;20590;-71
2021/12/17 04:03:16;;;;;;;22.40;6.60;;;;;;;9.12;79.76;102797.97;5036670;28;20208;-71
2021/12/17 04:05:42;;;;;;;31.33;8.73;;;;;;;8.76;80.37;102798.50;5037820;28;20176;-72
2021/12/17 04:08:07;;;;;;;27.50;7.20;;;;;;;9.05;80.42;102805.19;5036727;28;20676;-72
2021/12/17 04:10:40;;;;;;;24.97;8.17;;;;;;;8.85;80.33;102791.25;5020245;28;20241;-72
2021/12/17 04:13:24;;;;;;;28.23;8.30;;;;;;;8.97;80.21;102805.31;5036934;28;20278;-72
2021/12/17 04:15:56;;;;;;;25.53;8.70;;;;;;;9.03;79.83;102793.66;5039418;28;20152;-72
2021/12/17 04:18:21;;;;;;;26.43;7.90;;;;;;;8.58;81.00;102790.78;5020956;28;20477;-72
2021/12/17 04:20:47;;;;;;;28.17;8.53;;;;;;;8.68;80.91;102794.19;5036502;28;20175;-72
2021/12/17 04:23:12;;;;;;;32.13;8.33;;;;;;;8.73;80.33;102781.69;5036579;28;20239;-72
2021/12/17 04:25:37;;;;;;;34.20;9.17;;;;;;;8.87;80.12;102774.34;5036355;28;20179;-71
2021/12/17 04:28:03;;;;;;;26.07;8.10;;;;;;;8.84;80.16;102790.38;5036723;28;20172;-71
2021/12/17 04:30:29;;;;;;;34.57;8.33;;;;;;;9.18;79.24;102784.53;5036465;28;20202;-71
2021/12/17 04:32:54;;;;;;;29.80;8.33;;;;;;;9.14;79.32;102788.16;5036379;28;20202;-72
2021/12/17 04:35:20;;;;;;;29.10;7.70;;;;;;;9.23;78.87;102788.00;5053801;28;20232;-71
2021/12/17 04:37:45;;;;;;;27.13;7.07;;;;;;;8.78;79.89;102779.81;5036025;28;20203;-71
2021/12/17 04:40:11;;;;;;;35.07;8.13;;;;;;;8.87;79.98;102781.47;5053856;28;20167;-71
2021/12/17 04:45:21;;;;;;;24.70;7.37;;;;;;;8.04;82.32;102792.28;5054374;28;20160;-72
2021/12/17 04:58:43;;;;;;;29.30;7.37;;;;;;;9.38;78.38;102787.78;5039619;28;20735;-72
2021/12/17 05:01:12;;;;;;;24.30;6.63;;;;;;;8.72;78.97;102775.47;5054654;28;20171;-72
2021/12/17 05:03:38;;;;;;;25.00;6.80;;;;;;;8.94;79.04;102785.81;5036489;28;20207;-71
2021/12/17 05:06:03;;;;;;;26.70;7.50;;;;;;;9.26;78.46;102799.50;5035967;28;20317;-73
2021/12/17 05:08:29;;;;;;;25.97;7.07;;;;;;;9.56;77.70;102798.09;5036558;28;20175;-72
2021/12/17 05:19:19;;;;;;;24.20;6.50;;;;;;;9.45;78.78;102820.53;5038519;28;20582;-71
2021/12/17 05:21:45;;;;;;;24.90;7.07;;;;;;;8.85;78.83;102799.25;5038123;28;20295;-71
2021/12/17 05:24:10;;;;;;;22.90;6.47;;;;;;;10.07;75.71;102807.84;5035903;28;20203;-72
2021/12/17 05:26:35;;;;;;;21.03;6.63;;;;;;;10.09;76.07;102806.91;5035723;28;20670;-72
2021/12/17 05:29:00;;;;;;;22.33;6.03;;;;;;;9.40;77.96;102802.81;5039909;28;20173;-73
2021/12/17 05:31:26;;;;;;;25.03;6.13;;;;;;;9.86;77.27;102827.78;5050224;28;20183;-73
2021/12/17 05:33:53;;;;;;;29.30;6.20;;;;;;;10.27;75.08;102817.25;5049141;28;20577;-71
2021/12/17 05:36:20;;;;;;;25.67;6.90;;;;;;;10.47;74.05;102813.28;5049206;28;20183;-72
2021/12/17 05:38:46;;;;;;;27.17;7.77;;;;;;;10.48;74.49;102823.94;5052041;28;20167;-72
2021/12/17 05:41:11;;;;;;;25.07;6.60;;;;;;;9.97;75.07;102815.13;5049583;28;20687;-72
2021/12/17 05:43:38;;;;;;;27.50;7.13;;;;;;;9.76;76.44;102843.09;5036854;28;20195;-70
2021/12/17 05:46:10;;;;;;;34.90;6.50;;;;;;;10.38;75.39;102846.38;5037180;28;20180;-72
2021/12/17 05:48:35;;;;;;;26.03;6.20;;;;;;;10.54;74.20;102849.63;5036629;28;20209;-70
2021/12/17 05:51:03;;;;;;;25.03;6.57;;;;;;;10.01;75.80;102855.06;5035456;28;20586;-70
2021/12/17 05:53:29;;;;;;;24.57;6.17;;;;;;;10.31;74.67;102850.97;5034799;28;20194;-71
2021/12/17 05:55:55;;;;;;;30.73;6.43;;;;;;;10.33;74.74;102862.47;5018672;28;20176;-60
2021/12/17 05:58:21;;;;;;;19.17;5.87;;;;;;;10.53;74.05;102855.88;5053028;28;20241;-60
2021/12/17 06:00:46;;;;;;;21.23;5.77;;;;;;;10.44;73.42;102850.72;5035171;28;20646;-60
2021/12/17 06:03:12;;;;;;;29.90;6.40;;;;;;;10.63;73.63;102861.00;5052669;28;20210;-61
2021/12/17 06:05:37;;;;;;;23.10;6.60;;;;;;;10.69;73.02;102845.75;5034985;28;20171;-62
2021/12/17 06:08:04;;;;;;;27.80;6.60;;;;;;;10.90;72.55;102848.84;5018439;28;20539;-60
2021/12/17 06:10:31;;;;;;;25.13;6.03;;;;;;;10.72;73.45;102848.34;5034946;28;20168;-60
2021/12/17 06:12:57;;;;;;;24.33;6.33;;;;;;;10.73;73.65;102844.75;5035929;28;20191;-59
2021/12/17 06:15:22;;;;;;;25.23;6.03;;;;;;;10.86;72.81;102847.16;5056563;28;20176;-59
2021/12/17 06:17:48;;;;;;;23.03;5.93;;;;;;;11.09;72.31;102856.41;5039542;28;20267;-71
2021/12/17 06:20:15;;;;;;;26.10;6.33;;;;;;;10.84;72.77;102850.78;5028009;28;20301;-72
2021/12/17 06:22:40;;;;;;;26.00;6.67;;;;;;;10.68;73.12;102841.31;5042778;28;20198;-72
2021/12/17 06:25:07;;;;;;;17.83;6.60;;;;;;;10.39;73.89;102828.56;5039637;28;20650;-71
2021/12/17 06:27:36;;;;;;;23.77;5.90;;;;;;;10.76;72.59;102837.56;5041446;28;20262;-71
2021/12/17 06:30:04;;;;;;;25.13;7.67;;;;;;;10.45;74.79;102858.72;5025486;28;20186;-72
2021/12/17 06:32:30;;;;;;;20.70;6.90;;;;;;;10.01;75.91;102849.72;5081058;22;20568;-70
2021/12/17 06:34:55;;;;;;;29.67;6.97;;;;;;;9.82;74.86;102818.97;5056526;28;20182;-69
2021/12/17 06:37:21;;;;;;;26.40;7.60;;;;;;;10.18;75.48;102841.41;5055970;28;20244;-70
2021/12/17 06:39:48;;;;;;;31.10;7.50;;;;;;;10.30;74.83;102835.84;5055883;28;20175;-70
2021/12/17 06:42:13;;;;;;;25.60;7.23;;;;;;;9.95;76.80;102855.16;5037785;28;20667;-70
2021/12/17 06:44:40;;;;;;;27.03;6.97;;;;;;;9.93;76.61;102866.78;5038065;28;20225;-70
2021/12/17 06:47:11;;;;;;;22.37;6.40;;;;;;;10.61;74.76;102861.94;5021496;28;20206;-70
2021/12/17 07:01:12;;;;;;;24.10;5.60;;;;;;;9.88;75.70;102853.53;5055732;28;20178;-69
2021/12/17 07:05:58;;;;;;;29.37;6.33;;;;;;;9.69;75.64;102842.31;5055487;28;20166;-70
2021/12/17 07:09:15;;;;;;;19.53;6.37;;;;;;;9.05;79.29;102874.44;5040788;28;20179;-69
2021/12/17 07:11:35;;;;;;;27.47;6.03;;;;;;;10.22;75.49;102835.13;5041380;28;20183;-70
2021/12/17 07:22:14;;;;;;;24.00;6.40;;;;;;;10.56;73.89;102856.69;5055672;28;20295;-70
2021/12/17 07:31:59;;;;;;;33.80;5.70;;;;;;;9.70;75.75;102854.75;5055640;28;20259;-70
2021/12/17 07:33:15;;;;;;;18.37;6.37;;;;;;;10.64;73.84;102862.75;5054991;28;20690;-69
2021/12/17 07:35:54;;;;;;;30.03;6.90;;;;;;;10.30;74.09;102857.22;5054920;28;20179;-70
2021/12/17 07:41:02;;;;;;;27.17;5.87;;;;;;;10.24;75.79;102859.13;5039697;28;20365;-70
2021/12/17 07:43:36;;;;;;;18.93;5.80;;;;;;;10.34;75.59;102853.56;5036765;28;20211;-69
2021/12/17 07:46:04;;;;;;;35.40;6.30;;;;;;;10.10;76.78;102869.16;5038128;28;20520;-70
2021/12/17 07:48:30;;;;;;;22.07;5.70;;;;;;;10.73;73.82;102859.00;5037594;28;20540;-69
2021/12/17 07:50:55;;;;;;;20.13;5.13;;;;;;;10.57;73.72;102847.78;5037420;28;20171;-69
2021/12/17 07:53:21;;;;;;;20.87;4.73;;;;;;;10.55;73.47;102848.72;5055000;28;20197;-69
2021/12/17 07:55:46;;;;;;;22.67;5.50;;;;;;;10.68;73.60;102847.53;5036712;28;20179;-69
2021/12/17 07:58:11;;;;;;;23.27;5.83;;;;;;;10.22;74.19;102842.25;5036423;28;20622;-69
2021/12/17 08:00:37;;;;;;;19.97;5.43;;;;;;;9.97;75.42;102839.13;5020234;28;20733;-70
2021/12/17 08:03:02;;;;;;;26.50;5.40;;;;;;;10.14;74.43;102842.38;5054377;28;20192;-70
2021/12/17 08:05:28;;;;;;;24.07;6.03;;;;;;;10.14;75.23;102861.06;5036659;28;20176;-70
2021/12/17 08:07:53;;;;;;;22.97;5.17;;;;;;;9.93;74.50;102829.44;5054450;28;20218;-70
2021/12/17 08:10:18;;;;;;;19.93;5.20;;;;;;;10.00;74.82;102836.41;5036247;28;20172;-70
2021/12/17 08:12:44;;;;;;;18.40;4.20;;;;;;;10.47;73.25;102854.22;5036648;28;20563;-71
2021/12/17 08:15:11;;;;;;;20.53;4.83;;;;;;;10.46;72.54;102851.59;5055155;28;20172;-71
2021/12/17 08:25:50;;;;;;;22.67;5.30;;;;;;;10.16;72.63;102840.56;5051252;28;20594;-70
2021/12/17 08:28:16;;;;;;;27.83;5.63;;;;;;;10.24;73.45;102857.34;5066435;28;20159;-70
2021/12/17 08:30:42;;;;;;;15.90;4.37;;;;;;;11.08;71.35;102860.88;5063971;28;20172;-71
2021/12/17 08:33:07;;;;;;;20.77;5.53;;;;;;;10.81;71.63;102859.72;5065542;28;20211;-71
2021/12/17 08:35:34;;;;;;;17.40;5.00;;;;;;;10.74;72.02;102866.09;5062568;28;20186;-69
2021/12/17 08:37:59;;;;;;;19.77;5.10;;;;;;;10.81;72.10;102875.75;5039154;28;20325;-70
2021/12/17 08:40:26;;;;;;;26.60;6.20;;;;;;;10.31;74.39;102882.13;5037812;28;20205;-71
2021/12/17 08:42:53;;;;;;;25.90;6.00;;;;;;;10.62;73.88;102890.41;5055657;28;20199;-71
2021/12/17 08:45:18;;;;;;;23.40;5.03;;;;;;;11.03;71.90;102876.16;5037600;28;20172;-72
2021/12/17 08:47:44;;;;;;;26.80;5.83;;;;;;;10.83;71.47;102879.28;5037746;28;20262;-70
2021/12/17 08:50:11;;;;;;;19.63;5.20;;;;;;;10.82;71.63;102882.84;5036974;28;20195;-70
2021/12/17 08:52:36;;;;;;;25.37;5.67;;;;;;;10.41;72.58;102874.81;5036481;28;20195;-70
2021/12/17 08:55:03;;;;;;;21.93;5.13;;;;;;;11.18;71.60;102894.53;5054419;28;20527;-70
2021/12/17 08:57:29;;;;;;;22.20;5.27;;;;;;;10.54;72.58;102889.69;5036128;28;20172;-71
2021/12/17 08:59:57;;;;;;;21.83;5.27;;;;;;;10.66;72.61;102892.09;5019259;28;20175;-70
2021/12/17 09:02:23;;;;;;;22.23;5.17;;;;;;;10.20;73.40;102879.66;5054732;28;20241;-70
2021/12/17 09:04:48;;;;;;;19.03;4.60;;;;;;;10.23;71.33;102858.25;5036747;28;20211;-70
2021/12/17 09:07:13;;;;;;;17.17;3.67;;;;;;;10.31;71.80;102879.44;5054059;28;20179;-70
2021/12/17 09:09:39;;;;;;;13.03;4.30;;;;;;;9.27;74.03;102870.53;5054403;28;20203;-69
2021/12/17 09:12:05;;;;;;;19.63;6.80;;;;;;;9.62;75.32;102911.75;5036287;28;20223;-69
2021/12/17 09:14:30;;;;;;;58.37;26.23;;;;;;;10.80;72.16;102902.50;5054757;28;20189;-69
2021/12/17 09:16:56;;;;;;;22.10;7.53;;;;;;;10.90;70.70;102886.22;5055234;28;20175;-69
2021/12/17 09:19:22;;;;;;;31.40;9.57;;;;;;;10.15;72.51;102881.50;5035783;28;20622;-69
2021/12/17 09:21:48;;;;;;;29.60;11.97;;;;;;;10.48;72.17;102893.34;5053727;28;20175;-69
2021/12/17 09:24:14;;;;;;;15.43;5.33;;;;;;;10.75;70.97;102886.53;5053883;28;20238;-69
2021/12/17 09:26:39;;;;;;;17.73;4.87;;;;;;;10.80;70.59;102895.38;5035981;28;20203;-69
2021/12/17 09:29:04;;;;;;;19.73;4.40;;;;;;;11.02;69.98;102898.44;5035949;28;20547;-70
2021/12/17 09:31:30;;;;;;;16.83;6.17;;;;;;;10.96;69.75;102894.13;5035658;28;20202;-69
2021/12/17 09:33:55;;;;;;;20.97;5.37;;;;;;;11.03;70.05;102902.00;5035640;28;20207;-69
2021/12/17 09:36:21;;;;;;;19.07;4.63;;;;;;;10.15;73.35;102924.19;5035413;28;20230;-69
2021/12/17 09:38:49;;;;;;;23.43;4.83;;;;;;;11.07;70.06;102909.03;5035238;28;20172;-69
2021/12/17 09:41:16;;;;;;;13.47;4.77;;;;;;;10.13;73.17;102903.78;5035390;28;20199;-70
2021/12/17 09:43:42;;;;;;;19.50;5.27;;;;;;;10.31;71.61;102885.66;5035280;28;20208;-69
2021/12/17 09:46:07;;;;;;;17.97;4.73;;;;;;;9.77;72.47;102881.31;5052868;28;20237;-69
2021/12/17 09:48:34;;;;;;;18.33;4.70;;;;;;;10.84;71.41;102909.53;5037394;28;20644;-70
2021/12/17 09:51:01;;;;;;;18.27;5.17;;;;;;;10.24;71.14;102889.34;5039529;28;20175;-69
2021/12/17 09:53:26;;;;;;;20.00;4.97;;;;;;;10.55;70.69;102896.78;5056997;28;20245;-70
2021/12/17 09:55:52;;;;;;;14.50;4.57;;;;;;;10.00;72.39;102890.66;5039515;28;20172;-70
2021/12/17 09:58:17;;;;;;;17.33;4.77;;;;;;;10.49;70.83;102872.88;5056560;28;20217;-70
2021/12/17 10:00:43;;;;;;;16.10;4.77;;;;;;;10.03;71.68;102871.03;5056549;28;20172;-69
2021/12/17 10:03:08;;;;;;;18.30;4.00;;;;;;;9.90;71.29;102849.03;5038763;28;20198;-70
2021/12/17 10:05:35;;;;;;;15.23;4.40;;;;;;;9.58;71.95;102851.38;5039099;28;20228;-70
2021/12/17 10:08:13;;;;;;;12.83;4.30;;;;;;;9.93;72.13;102861.44;5039015;28;20188;-71
2021/12/17 10:10:41;;;;;;;13.57;3.90;;;;;;;9.46;72.71;102870.25;5040447;28;20651;-70
2021/12/17 10:13:16;;;;;;;14.73;3.90;;;;;;;9.62;73.22;102882.44;5038914;28;20191;-70
2021/12/17 10:15:44;;;;;;;11.63;3.83;;;;;;;10.11;71.98;102877.13;5038922;28;20171;-69
2021/12/17 10:18:09;;;;;;;13.17;3.37;;;;;;;9.06;73.52;102839.78;5038943;28;20233;-70
2021/12/17 10:20:41;;;;;;;20.10;4.27;;;;;;;10.40;72.28;102879.25;5056734;28;20180;-70
2021/12/17 10:23:09;;;;;;;13.43;3.70;;;;;;;9.61;73.54;102876.22;5022172;28;20734;-70
2021/12/17 10:25:42;;;;;;;18.33;4.20;;;;;;;9.86;74.42;102878.47;5038909;28;20628;-69
2021/12/17 10:28:08;;;;;;;15.67;4.13;;;;;;;10.01;72.09;102855.06;5056397;28;20152;-70
2021/12/17 10:30:39;;;;;;;14.13;3.80;;;;;;;10.33;72.51;102869.63;5038125;28;20172;-69
2021/12/17 10:33:07;;;;;;;13.57;3.87;;;;;;;10.83;71.18;102873.94;5038001;28;20203;-69
2021/12/17 10:35:35;;;;;;;11.67;3.03;;;;;;;10.56;72.01;102858.47;5038207;28;20628;-72
2021/12/17 10:38:04;;;;;;;13.10;3.57;;;;;;;10.42;71.92;102865.91;5038449;28;20294;-70
2021/12/17 10:40:37;;;;;;;14.30;3.50;;;;;;;10.12;72.07;102857.53;5038390;28;20183;-69
2021/12/17 10:43:28;;;;;;;13.27;3.80;;;;;;;9.96;71.92;102856.94;5037973;28;20201;-70
2021/12/17 10:46:00;;;;;;;13.30;4.00;;;;;;;9.87;73.18;102866.91;5039285;28;20528;-70
2021/12/17 10:48:30;;;;;;;13.27;4.13;;;;;;;9.88;72.46;102856.19;5038672;28;20156;-69
2021/12/17 10:51:09;;;;;;;13.67;3.83;;;;;;;10.73;71.29;102866.13;5038575;28;20210;-69
2021/12/17 10:53:35;;;;;;;12.77;4.07;;;;;;;10.18;72.10;102872.56;5055314;28;20183;-70
2021/12/17 10:56:00;;;;;;;17.83;4.57;;;;;;;9.92;72.94;102873.03;5055812;28;20639;-70
2021/12/17 10:58:26;;;;;;;9.87;3.53;;;;;;;10.71;70.76;102865.28;5037801;28;20236;-70
2021/12/17 11:01:01;;;;;;;11.70;4.27;;;;;;;10.61;70.50;102876.16;5054417;28;20175;-69
2021/12/17 11:03:27;;;;;;;14.93;3.87;;;;;;;10.34;70.96;102864.25;5021032;28;20241;-70
2021/12/17 11:05:53;;;;;;;12.67;4.17;;;;;;;10.23;70.06;102850.25;5037766;28;20178;-71
2021/12/17 11:08:24;;;;;;;12.67;4.27;;;;;;;10.32;70.33;102870.53;5038386;28;20649;-70
2021/12/17 11:10:57;;;;;;;13.87;4.10;;;;;;;10.45;69.71;102871.19;5055855;28;20235;-69
2021/12/17 11:13:22;;;;;;;11.93;4.23;;;;;;;9.87;71.41;102866.91;5038591;28;20192;-68
2021/12/17 11:15:49;;;;;;;13.80;4.53;;;;;;;10.51;70.39;102884.41;5055692;28;20182;-69
2021/12/17 11:18:15;;;;;;;16.73;5.03;;;;;;;10.38;70.34;102870.41;5037419;28;20171;-70
2021/12/17 11:20:40;;;;;;;14.53;4.23;;;;;;;9.65;72.31;102875.25;5037506;28;20190;-70
2021/12/17 11:23:10;;;;;;;20.93;5.60;;;;;;;9.77;71.35;102850.19;5055242;28;20196;-70
2021/12/17 11:25:37;;;;;;;17.57;4.97;;;;;;;9.68;71.63;102866.34;5038277;28;20164;-70
2021/12/17 11:28:04;;;;;;;13.07;4.73;;;;;;;10.50;70.37;102879.97;5038097;28;20168;-68
2021/12/17 11:30:31;;;;;;;11.83;4.13;;;;;;;9.81;71.17;102849.22;5037115;28;20262;-70
2021/12/17 11:33:01;;;;;;;18.83;5.03;;;;;;;9.66;72.11;102846.81;5037170;28;20305;-70
2021/12/17 11:35:27;;;;;;;16.80;5.17;;;;;;;10.17;70.58;102860.13;5038142;28;20171;-70
2021/12/17 11:37:55;;;;;;;15.63;4.60;;;;;;;10.42;69.84;102856.09;5037404;28;20179;-70
2021/12/17 11:40:25;;;;;;;11.83;3.70;;;;;;;10.32;70.21;102844.72;5021071;28;20214;-69
2021/12/17 11:43:14;;;;;;;20.53;5.07;;;;;;;9.71;73.19;102864.50;5036759;28;20192;-69
2021/12/17 11:45:39;;;;;;;16.70;4.70;;;;;;;9.58;72.37;102843.41;5037707;28;20190;-69
2021/12/17 11:48:18;;;;;;;17.67;4.50;;;;;;;10.16;71.33;102850.34;5054852;28;20175;-69
2021/12/17 11:50:46;;;;;;;19.20;4.67;;;;;;;9.96;70.81;102835.59;5037516;28;20202;-70
2021/12/17 11:53:23;;;;;;;13.90;4.10;;;;;;;9.64;71.75;102844.16;5036437;28;20191;-70
2021/12/17 11:55:57;;;;;;;21.47;5.13;;;;;;;9.80;70.94;102842.13;5020969;28;20179;-70
2021/12/17 11:58:42;;;;;;;18.80;4.63;;;;;;;10.05;70.61;102847.91;5037448;28;20168;-69
2021/12/17 12:01:07;;;;;;;16.43;4.40;;;;;;;10.73;69.28;102856.31;5036964;28;20172;-70
2021/12/17 12:03:33;;;;;;;16.20;4.53;;;;;;;10.16;71.01;102864.59;5055966;28;20223;-70
2021/12/17 12:05:59;;;;;;;13.00;4.30;;;;;;;9.80;71.34;102855.47;5055833;28;20587;-70
2021/12/17 12:08:44;;;;;;;16.07;3.53;;;;;;;9.88;72.01;102863.31;5037020;28;20179;-69
2021/12/17 12:11:12;;;;;;;12.10;3.83;;;;;;;10.00;70.12;102841.75;5054818;28;20250;-70
2021/12/17 12:13:40;;;;;;;13.30;4.03;;;;;;;10.38;69.21;102826.81;5020442;28;20242;-71
2021/12/17 12:16:09;;;;;;;14.93;3.93;;;;;;;10.50;69.28;102850.59;5055265;28;20208;-70
2021/12/17 12:18:58;;;;;;;17.63;4.33;;;;;;;10.73;68.60;102848.31;5055683;28;20269;-70
2021/12/17 12:21:31;;;;;;;12.83;3.40;;;;;;;10.13;69.72;102843.28;5047378;28;20660;-70
2021/12/17 12:24:17;;;;;;;12.80;3.40;;;;;;;10.26;70.31;102862.63;5036616;28;20325;-71
2021/12/17 12:26:48;;;;;;;12.50;3.37;;;;;;;10.26;70.73;102865.31;5054613;28;20187;-69
2021/12/17 12:29:15;;;;;;;15.73;3.47;;;;;;;10.56;69.24;102862.03;5036529;28;20639;-69
2021/12/17 12:31:43;;;;;;;18.43;4.37;;;;;;;10.16;69.18;102842.34;5054359;28;20222;-72
2021/12/17 12:34:12;;;;;;;15.43;3.63;;;;;;;10.75;67.93;102853.63;5077262;22;20258;-72
2021/12/17 12:37:04;;;;;;;18.20;3.63;;;;;;;10.87;67.67;102856.03;5037786;28;20258;-73
2021/12/17 12:39:31;;;;;;;17.77;3.37;;;;;;;10.40;68.65;102855.22;5057414;28;20160;-73
2021/12/17 12:42:00;;;;;;;12.60;3.30;;;;;;;10.83;67.80;102865.91;5039808;28;20197;-72
2021/12/17 12:44:50;;;;;;;13.50;3.33;;;;;;;11.32;65.88;102855.88;5053979;28;20286;-72
2021/12/17 12:47:25;;;;;;;14.57;3.60;;;;;;;10.52;68.33;102830.09;5055000;28;20159;-72
2021/12/17 12:50:03;;;;;;;17.63;3.57;;;;;;;11.26;67.30;102856.91;5037048;28;20179;-72
2021/12/17 12:52:28;;;;;;;9.70;2.93;;;;;;;11.08;67.20;102847.53;5037542;28;20199;-72
2021/12/17 12:54:56;;;;;;;12.10;3.80;;;;;;;11.12;67.71;102853.66;5056297;28;20182;-73
2021/12/17 12:57:28;;;;;;;11.10;3.20;;;;;;;10.68;68.73;102842.19;5041825;28;20691;-73
2021/12/17 12:59:56;;;;;;;11.00;3.47;;;;;;;10.71;67.90;102834.09;5042870;28;20176;-72
2021/12/17 13:02:25;;;;;;;12.30;3.50;;;;;;;10.93;68.01;102839.88;5026549;28;20207;-73
2021/12/17 13:04:53;;;;;;;12.77;3.93;;;;;;;10.89;68.05;102849.75;5025896;28;20223;-72
2021/12/17 13:07:30;;;;;;;11.67;4.17;;;;;;;10.45;69.86;102849.81;5041139;28;20209;-72
2021/12/17 13:09:56;;;;;;;13.70;3.50;;;;;;;10.74;68.63;102846.50;5039934;28;20644;-72
2021/12/17 13:12:24;;;;;;;21.67;7.20;;;;;;;9.95;71.00;102839.16;5037223;28;20234;-71
2021/12/17 13:14:50;;;;;;;18.43;5.17;;;;;;;10.00;70.25;102825.75;5053777;28;20231;-72
2021/12/17 13:20:15;;;;;;;20.00;5.93;;;;;;;9.45;72.68;102855.19;5055038;28;20176;-71
2021/12/17 13:22:57;;;;;;;17.30;5.33;;;;;;;10.43;70.72;102841.84;5044472;28;20203;-71
2021/12/17 13:25:27;;;;;;;15.73;4.73;;;;;;;10.24;70.79;102849.31;5019926;28;20672;-71
2021/12/17 13:27:55;;;;;;;13.73;4.77;;;;;;;9.76;72.13;102844.88;5036126;28;20176;-72
2021/12/17 13:30:24;;;;;;;15.50;4.67;;;;;;;10.08;71.36;102845.19;5035966;28;20175;-71
2021/12/17 13:32:51;;;;;;;19.67;4.40;;;;;;;10.47;71.53;102870.25;5019686;28;20299;-73
2021/12/17 13:35:17;;;;;;;19.07;3.80;;;;;;;9.42;72.08;102842.78;5036895;28;20168;-72
2021/12/17 13:37:43;;;;;;;15.07;4.80;;;;;;;10.29;70.64;102844.78;5038741;28;20194;-73
2021/12/17 13:40:10;;;;;;;15.63;4.33;;;;;;;9.79;71.63;102834.16;5039528;28;20179;-72
2021/12/17 13:42:43;;;;;;;19.13;5.20;;;;;;;10.23;69.93;102836.00;5038651;28;20293;-73
2021/12/17 13:45:10;;;;;;;11.73;4.63;;;;;;;9.67;71.91;102848.59;5038567;28;20195;-72
2021/12/17 13:47:40;;;;;;;11.43;4.40;;;;;;;10.40;69.96;102855.22;5036387;28;20174;-73
2021/12/17 13:50:22;;;;;;;12.00;4.60;;;;;;;10.22;70.39;102883.16;5036499;28;20552;-73
2021/12/17 13:52:49;;;;;;;15.40;3.93;;;;;;;9.65;70.29;102880.59;5035517;28;20626;-71
2021/12/17 13:55:18;;;;;;;14.63;4.30;;;;;;;9.79;71.56;102908.81;5035464;28;20175;-71
2021/12/17 13:57:43;;;;;;;13.60;5.53;;;;;;;9.86;70.52;102884.69;5019460;28;20176;-72
2021/12/17 14:00:21;;;;;;;16.77;4.60;;;;;;;9.85;71.22;102896.25;5036036;28;20316;-72
2021/12/17 14:02:47;;;;;;;13.07;4.60;;;;;;;9.62;70.77;102861.09;5035932;28;20195;-71
2021/12/17 14:05:26;;;;;;;13.40;4.10;;;;;;;10.07;69.96;102874.56;5053717;28;20196;-72
2021/12/17 14:07:54;;;;;;;16.87;5.00;;;;;;;10.03;69.64;102881.69;5019727;28;20289;-72